Time;durP1;ratioP1;P1;durP2;ratioP2;P2;SDS_P1;SDS_P2;PMS_P1;PMS_P2;Temp;Humidity;BMP_temperature;BMP_pressure;BME280_temperature;BME280_humidity;BME280_pressure;Samples;Min_cycle;Max_cycle;Signal;HPM_P1;HPM_P2
2021/12/20 00:01:59;;;;;;;1.00;1.00;;;;;;;7.07;73.54;101828.06;6254483;22;20012;-72
2021/12/20 00:04:25;;;;;;;0.82;0.82;;;;;;;7.08;73.37;101826.19;6279089;22;20000;-72
2021/12/20 00:06:50;;;;;;;0.90;0.90;;;;;;;7.05;73.81;101821.97;6226809;22;20031;-73
2021/12/20 00:09:16;;;;;;;0.90;0.90;;;;;;;7.10;73.55;101824.09;6225885;22;20015;-73
2021/12/20 00:11:42;;;;;;;0.90;0.90;;;;;;;7.11;73.46;101810.28;6226653;22;20034;-73
2021/12/20 00:14:07;;;;;;;0.90;0.90;;;;;;;7.09;73.28;101806.94;6276262;22;20434;-73
2021/12/20 00:16:33;;;;;;;0.60;0.60;;;;;;;7.12;73.67;101806.50;6226113;22;20008;-74
2021/12/20 00:18:58;;;;;;;1.60;0.98;;;;;;;7.16;73.27;101791.44;6227496;22;20479;-74
2021/12/20 00:21:24;;;;;;;0.80;0.80;;;;;;;7.28;73.70;101807.13;6228608;22;20456;-74
2021/12/20 00:23:49;;;;;;;1.02;1.02;;;;;;;7.31;73.40;101793.13;6284778;22;20484;-76
2021/12/20 00:26:15;;;;;;;0.70;0.70;;;;;;;7.40;73.82;101796.44;6261962;22;20063;-76
2021/12/20 00:28:41;;;;;;;1.13;1.02;;;;;;;7.38;73.55;101793.94;6286292;22;20007;-75
2021/12/20 00:31:06;;;;;;;1.08;1.00;;;;;;;7.44;73.21;101798.53;6230654;22;20063;-75
2021/12/20 00:33:33;;;;;;;0.85;0.85;;;;;;;7.44;73.29;101798.53;6258880;22;20099;-75
2021/12/20 00:36:07;;;;;;;1.23;1.20;;;;;;;7.47;73.22;101798.09;6285243;22;19996;-75
2021/12/20 00:41:28;;;;;;;1.30;1.30;;;;;;;7.48;72.94;101794.34;6281779;22;20015;-75
2021/12/20 00:43:54;;;;;;;1.02;1.02;;;;;;;7.41;73.13;101781.81;6256002;22;20004;-76
2021/12/20 00:46:20;;;;;;;1.60;1.50;;;;;;;7.41;73.21;101793.53;6275420;22;20015;-74
2021/12/20 00:48:45;;;;;;;0.90;0.90;;;;;;;7.45;72.89;101800.22;6229595;22;20007;-74
2021/12/20 00:51:13;;;;;;;1.55;1.45;;;;;;;7.46;73.43;101812.78;6252127;22;20012;-75
2021/12/20 00:53:41;;;;;;;0.70;0.70;;;;;;;7.43;73.17;101802.31;6278010;22;20007;-75
2021/12/20 00:56:07;;;;;;;1.80;1.70;;;;;;;7.45;73.60;101800.22;6251210;22;20000;-75
2021/12/20 00:58:34;;;;;;;1.20;1.20;;;;;;;7.37;73.63;101786.81;6226699;22;20319;-75
2021/12/20 01:01:03;;;;;;;1.17;1.17;;;;;;;7.34;73.61;101781.81;6257554;22;19996;-76
2021/12/20 01:03:32;;;;;;;1.08;1.08;;;;;;;7.44;73.76;101793.09;6275064;22;20418;-74
2021/12/20 01:06:06;;;;;;;1.00;0.98;;;;;;;7.42;73.32;101792.47;6251941;22;20003;-75
2021/12/20 01:08:36;;;;;;;0.80;0.80;;;;;;;7.51;73.55;101796.66;6272562;22;20087;-75
2021/12/20 01:11:02;;;;;;;1.30;1.30;;;;;;;7.57;74.05;101803.13;6250924;22;20319;-75
2021/12/20 01:13:32;;;;;;;0.90;0.90;;;;;;;7.54;73.24;101787.22;6251813;22;20085;-75
2021/12/20 01:16:01;;;;;;;1.67;1.00;;;;;;;7.56;73.49;101785.09;6251890;22;20011;-75
2021/12/20 01:18:27;;;;;;;1.38;0.93;;;;;;;7.59;73.03;101794.75;6276535;22;20007;-75
2021/12/20 01:20:53;;;;;;;0.82;0.82;;;;;;;7.58;73.80;101793.06;6250671;22;20086;-75
2021/12/20 01:23:21;;;;;;;1.17;1.15;;;;;;;7.52;73.12;101783.88;6276954;22;20023;-75
2021/12/20 01:25:47;;;;;;;1.00;1.00;;;;;;;7.42;73.41;101770.72;6278278;22;20004;-74
2021/12/20 01:28:12;;;;;;;0.90;0.90;;;;;;;7.42;73.41;101773.44;6252508;22;20690;-75
2021/12/20 01:30:42;;;;;;;1.30;1.30;;;;;;;7.37;73.12;101765.06;6226078;22;20008;-75
2021/12/20 01:33:09;;;;;;;0.75;0.75;;;;;;;7.44;73.89;101756.88;6274856;22;20026;-75
2021/12/20 01:35:38;;;;;;;1.02;1.00;;;;;;;7.53;73.68;101768.38;6247424;22;20324;-77
2021/12/20 01:38:04;;;;;;;1.33;1.23;;;;;;;7.49;73.74;101760.66;6225914;22;20085;-76
2021/12/20 01:40:31;;;;;;;1.10;1.10;;;;;;;7.54;73.28;101764.63;6252491;22;20007;-76
2021/12/20 01:42:58;;;;;;;1.30;1.30;;;;;;;7.53;73.16;101752.88;6276138;22;20023;-75
2021/12/20 01:45:26;;;;;;;1.58;1.48;;;;;;;7.53;73.43;101752.88;6253373;22;20381;-76
2021/12/20 01:48:02;;;;;;;1.08;1.08;;;;;;;7.54;73.35;101748.28;6251631;22;20012;-75
2021/12/20 01:50:46;;;;;;;1.20;1.20;;;;;;;7.53;73.80;101741.16;6253159;22;20007;-74
2021/12/20 01:53:14;;;;;;;1.40;0.90;;;;;;;7.50;73.58;101737.81;6252215;22;20018;-76
2021/12/20 01:55:40;;;;;;;1.10;1.10;;;;;;;7.53;73.66;101746.59;6251651;22;20007;-75
2021/12/20 01:58:06;;;;;;;1.17;1.08;;;;;;;7.54;73.94;101743.66;6249766;22;20003;-74
2021/12/20 02:00:34;;;;;;;1.48;1.27;;;;;;;7.48;73.54;101730.91;6280789;22;20712;-74
2021/12/20 02:03:02;;;;;;;1.58;1.48;;;;;;;7.51;73.05;101744.94;6249953;22;20008;-77
2021/12/20 02:08:23;;;;;;;1.10;1.10;;;;;;;7.47;73.66;101732.78;6292841;22;20441;-76
2021/12/20 02:10:53;;;;;;;1.55;1.45;;;;;;;7.54;73.72;101742.84;6253837;22;20023;-77
2021/12/20 02:13:21;;;;;;;0.90;0.90;;;;;;;7.55;73.18;101744.50;6278269;22;20008;-76
2021/12/20 02:15:47;;;;;;;1.45;1.35;;;;;;;7.56;73.92;101746.19;6280113;22;20030;-76
2021/12/20 02:18:15;;;;;;;1.08;1.08;;;;;;;7.48;73.33;101729.03;6280573;22;20011;-78
2021/12/20 02:20:46;;;;;;;0.95;0.95;;;;;;;7.53;74.09;101735.72;6250593;22;20011;-74
2021/12/20 02:23:49;;;;;;;0.93;0.93;;;;;;;7.48;73.10;101720.84;6253271;22;20007;-76
2021/12/20 02:26:18;;;;;;;1.13;1.13;;;;;;;7.42;73.59;101713.56;6266910;22;20052;-78
2021/12/20 02:28:54;;;;;;;1.10;1.10;;;;;;;7.54;73.77;101732.78;6244277;22;20076;-76
2021/12/20 02:39:52;;;;;;;0.63;0.63;;;;;;;7.55;73.59;101741.78;6277182;22;20068;-76
2021/12/20 02:42:22;;;;;;;0.70;0.70;;;;;;;7.48;73.52;101734.47;6221539;22;20087;-75
2021/12/20 02:45:08;;;;;;;1.15;1.10;;;;;;;7.59;74.09;101740.31;6249580;22;20003;-75
2021/12/20 02:47:37;;;;;;;0.80;0.80;;;;;;;7.56;72.89;101724.41;6253651;22;20118;-76
2021/12/20 02:50:03;;;;;;;0.82;0.82;;;;;;;7.56;73.56;101729.84;6278770;22;20003;-76
2021/12/20 02:52:30;;;;;;;0.80;0.80;;;;;;;7.66;73.54;101746.56;6279477;22;20081;-73
2021/12/20 02:54:56;;;;;;;1.20;1.20;;;;;;;7.65;73.48;101743.00;6245873;22;20008;-73
2021/12/20 02:57:21;;;;;;;1.52;1.42;;;;;;;7.59;72.58;101729.41;6274310;22;20018;-73
2021/12/20 02:59:49;;;;;;;1.00;1.00;;;;;;;7.60;73.28;101731.09;6250148;22;20481;-72
2021/12/20 03:02:19;;;;;;;1.08;1.08;;;;;;;7.56;72.88;101727.13;6245944;22;20334;-73
2021/12/20 03:04:44;;;;;;;1.13;1.13;;;;;;;7.50;73.16;101710.59;6276775;22;20000;-73
2021/12/20 03:07:15;;;;;;;2.45;1.13;;;;;;;7.59;72.94;101715.78;6223672;22;20381;-73
2021/12/20 03:09:50;;;;;;;1.02;1.02;;;;;;;7.55;72.82;101709.09;6244709;23;20016;-73
2021/12/20 03:12:15;;;;;;;0.77;0.77;;;;;;;7.60;73.14;101712.88;6251021;22;20081;-72
2021/12/20 03:14:47;;;;;;;1.27;1.17;;;;;;;7.50;73.51;101699.72;6250682;23;20007;-74
2021/12/20 03:17:15;;;;;;;1.50;1.40;;;;;;;7.59;73.55;101715.78;6247619;22;20027;-73
2021/12/20 03:19:40;;;;;;;0.90;0.90;;;;;;;7.60;73.39;101703.88;6247714;23;20068;-72
2021/12/20 03:22:09;;;;;;;0.98;0.90;;;;;;;7.62;72.88;101704.47;6246973;23;20052;-74
2021/12/20 03:24:34;;;;;;;0.75;0.75;;;;;;;7.62;73.07;101701.75;6246666;23;20445;-76
2021/12/20 03:27:00;;;;;;;0.50;0.50;;;;;;;7.64;73.64;101696.94;6249850;23;20004;-75
2021/12/20 03:29:25;;;;;;;0.57;0.57;;;;;;;7.66;73.17;101697.56;6226405;23;20004;-74
2021/12/20 03:31:51;;;;;;;1.05;1.05;;;;;;;7.63;73.60;101681.66;6222136;23;20019;-74
2021/12/20 03:34:18;;;;;;;1.50;1.40;;;;;;;7.65;73.50;101684.97;6250514;23;20035;-75
2021/12/20 03:36:44;;;;;;;1.15;1.13;;;;;;;7.65;72.98;101679.53;6220578;23;20008;-75
2021/12/20 03:39:10;;;;;;;1.67;1.58;;;;;;;7.60;72.87;101673.91;6241909;23;20016;-75
2021/12/20 03:41:36;;;;;;;1.30;1.20;;;;;;;7.56;72.61;101665.34;6243122;22;20760;-75
2021/12/20 03:44:05;;;;;;;1.75;1.65;;;;;;;7.53;73.09;101662.22;6240401;23;20039;-75
2021/12/20 03:46:33;;;;;;;1.35;1.25;;;;;;;7.49;73.04;101649.03;6241620;23;20086;-75
2021/12/20 03:48:59;;;;;;;1.42;1.33;;;;;;;7.48;73.05;101650.09;6241937;23;20038;-75
2021/12/20 03:51:24;;;;;;;1.30;1.20;;;;;;;7.58;72.89;101663.25;6236986;23;20150;-73
2021/12/20 03:53:50;;;;;;;1.48;1.48;;;;;;;7.57;72.78;101671.63;6245654;23;20008;-75
2021/12/20 03:56:32;;;;;;;2.20;1.70;;;;;;;7.45;72.62;101649.69;6247059;22;20633;-75
2021/12/20 03:58:58;;;;;;;1.48;1.38;;;;;;;7.50;72.38;101650.72;6242832;22;20032;-74
2021/12/20 04:01:25;;;;;;;1.65;1.55;;;;;;;7.38;72.86;101636.09;6242794;22;20015;-74
2021/12/20 04:03:53;;;;;;;4.03;1.65;;;;;;;7.40;72.40;101650.31;6214420;23;20012;-74
2021/12/20 04:06:18;;;;;;;1.63;1.52;;;;;;;7.34;72.55;101643.03;6240590;22;20004;-73
2021/12/20 04:08:44;;;;;;;1.92;1.83;;;;;;;7.40;72.24;101644.88;6241622;22;20048;-73
2021/12/20 04:11:10;;;;;;;1.75;1.65;;;;;;;7.42;72.83;101647.41;6246383;22;20048;-74
2021/12/20 04:13:45;;;;;;;2.90;1.77;;;;;;;7.41;72.42;101649.28;6245796;23;20008;-74
2021/12/20 04:16:11;;;;;;;1.80;1.70;;;;;;;7.30;72.89;101629.03;6241447;22;19997;-74
2021/12/20 04:18:41;;;;;;;1.70;1.60;;;;;;;7.34;72.04;101646.59;6242480;22;20008;-73
2021/12/20 04:21:07;;;;;;;1.60;1.50;;;;;;;7.31;72.47;101624.41;6248463;22;20008;-73
2021/12/20 04:23:32;;;;;;;1.23;1.10;;;;;;;7.29;72.28;101612.91;6243950;23;20000;-73
2021/12/20 04:26:00;;;;;;;1.30;1.25;;;;;;;7.39;72.10;101636.94;6245238;23;20012;-74
2021/12/20 04:28:28;;;;;;;1.42;1.33;;;;;;;7.38;72.38;101629.84;6243985;23;20031;-74
2021/12/20 04:30:53;;;;;;;2.17;1.33;;;;;;;7.35;72.64;101631.09;6245588;22;20012;-74
2021/12/20 04:33:20;;;;;;;1.00;1.00;;;;;;;7.39;71.69;101626.91;6242890;23;20010;-73
2021/12/20 04:35:46;;;;;;;1.10;1.10;;;;;;;7.50;72.83;101642.56;6242957;23;20038;-73
2021/12/20 04:38:12;;;;;;;0.90;0.90;;;;;;;7.55;72.12;101651.94;6251480;22;20061;-74
2021/12/20 04:40:48;;;;;;;;;;;;;;;;;;;;;
2021/12/20 04:43:14;;;;;;;1.60;1.50;;;;;;;7.46;72.29;101626.84;6252454;23;20035;-76
2021/12/20 04:45:42;;;;;;;1.75;1.65;;;;;;;7.45;72.48;101636.91;6254406;22;20004;-74
2021/12/20 04:48:09;;;;;;;1.25;0.95;;;;;;;7.51;72.01;101646.09;6248465;23;20430;-73
2021/12/20 04:50:38;;;;;;;1.63;1.52;;;;;;;7.48;72.17;101624.78;6247543;23;20377;-74
2021/12/20 04:53:11;;;;;;;1.25;1.25;;;;;;;7.53;72.04;101632.28;6251313;23;20018;-75
2021/12/20 04:55:39;;;;;;;0.88;0.88;;;;;;;7.49;72.39;101638.16;6252911;22;20026;-73
2021/12/20 04:58:10;;;;;;;0.80;0.80;;;;;;;7.46;71.85;101626.84;6249565;23;20004;-75
2021/12/20 05:00:40;;;;;;;1.55;1.45;;;;;;;7.51;72.08;101619.72;6254090;22;20008;-74
2021/12/20 05:03:06;;;;;;;0.73;0.73;;;;;;;7.49;72.15;101619.09;6251419;23;20334;-75
2021/12/20 05:05:32;;;;;;;0.80;0.80;;;;;;;7.56;71.82;101620.97;6251097;22;20059;-74
2021/12/20 05:08:01;;;;;;;1.98;1.40;;;;;;;7.55;71.65;101619.28;6251300;23;20008;-73
2021/12/20 05:10:33;;;;;;;1.13;1.02;;;;;;;7.53;71.76;101621.38;6266180;22;20012;-73
2021/12/20 05:13:08;;;;;;;1.20;1.20;;;;;;;7.52;71.72;101620.56;6284584;22;20004;-75
2021/12/20 05:15:37;;;;;;;1.40;1.40;;;;;;;7.48;71.88;101619.31;6281436;22;20022;-73
2021/12/20 05:18:10;;;;;;;1.52;1.42;;;;;;;7.37;71.57;101607.22;6257529;22;20007;-76
2021/12/20 05:20:38;;;;;;;1.45;1.35;;;;;;;7.41;71.41;101619.34;6281782;22;20086;-74
2021/12/20 05:23:11;;;;;;;1.15;1.05;;;;;;;7.44;71.36;101621.63;6230859;22;20004;-73
2021/12/20 05:25:37;;;;;;;1.58;1.48;;;;;;;7.35;71.85;101612.03;6229739;22;20603;-75
2021/12/20 05:28:10;;;;;;;1.13;1.13;;;;;;;7.31;72.11;101603.47;6257006;22;20064;-74
2021/12/20 05:30:48;;;;;;;;;;;;;;;;;;;;;
2021/12/20 05:33:14;;;;;;;1.27;1.27;;;;;;;7.20;71.83;101597.84;6283255;22;20034;-74
2021/12/20 05:35:43;;;;;;;1.15;1.10;;;;;;;7.22;71.64;101606.66;6230183;22;20023;-74
2021/12/20 05:38:08;;;;;;;1.13;1.02;;;;;;;7.28;71.79;101613.94;6283242;22;19996;-74
2021/12/20 05:40:36;;;;;;;1.52;1.42;;;;;;;7.22;72.04;101601.22;6228179;22;20011;-73
2021/12/20 05:43:10;;;;;;;0.85;0.85;;;;;;;7.27;71.54;101607.69;6278505;22;20078;-72
2021/12/20 05:45:36;;;;;;;1.67;1.58;;;;;;;7.25;71.64;101619.81;6250275;22;20012;-74
2021/12/20 05:48:02;;;;;;;2.42;1.48;;;;;;;7.30;71.42;101622.72;6253946;22;20042;-74
2021/12/20 05:50:30;;;;;;;1.50;1.40;;;;;;;7.31;71.25;101624.41;6248040;22;20014;-74
2021/12/20 05:52:59;;;;;;;1.50;1.40;;;;;;;7.22;71.53;101615.63;6256091;22;20042;-73
2021/12/20 05:55:24;;;;;;;0.93;0.93;;;;;;;7.18;71.59;101613.56;6255962;22;20038;-74
2021/12/20 05:57:50;;;;;;;1.80;1.27;;;;;;;7.20;71.61;101614.19;6278021;22;20004;-73
2021/12/20 06:00:18;;;;;;;0.73;0.73;;;;;;;7.15;71.51;101612.97;6228030;22;20007;-73
2021/12/20 06:03:02;;;;;;;0.60;0.60;;;;;;;7.23;71.89;101627.34;6253398;22;20003;-74
2021/12/20 06:05:31;;;;;;;0.73;0.73;;;;;;;7.27;71.48;101639.47;6256063;22;20000;-75
2021/12/20 06:07:59;;;;;;;0.50;0.50;;;;;;;7.20;71.02;101633.22;6254626;22;20023;-74
2021/12/20 06:10:32;;;;;;;0.63;0.63;;;;;;;7.32;71.41;101636.97;6277615;22;20008;-75
2021/12/20 06:12:58;;;;;;;1.20;0.40;;;;;;;7.26;71.09;101625.06;6230219;22;20015;-75
2021/12/20 06:15:26;;;;;;;0.80;0.80;;;;;;;7.30;71.37;101633.59;6281666;22;20000;-77
2021/12/20 06:17:56;;;;;;;0.65;0.65;;;;;;;7.24;71.09;101620.88;6251623;22;20009;-73
2021/12/20 06:20:22;;;;;;;0.30;0.30;;;;;;;7.26;71.13;101626.94;6277154;22;20656;-76
2021/12/20 06:22:51;;;;;;;0.40;0.40;;;;;;;7.24;70.51;101623.59;6249672;22;20098;-76
2021/12/20 06:25:22;;;;;;;0.57;0.57;;;;;;;7.21;71.04;101624.03;6277884;22;19999;-76
2021/12/20 06:27:55;;;;;;;0.50;0.50;;;;;;;7.14;71.33;101608.56;6282018;22;20334;-76
2021/12/20 06:30:21;;;;;;;0.60;0.60;;;;;;;7.24;71.04;101618.16;6277078;22;19999;-75
2021/12/20 06:32:57;;;;;;;0.55;0.35;;;;;;;7.35;71.47;101633.81;6248147;22;20015;-75
2021/12/20 06:35:23;;;;;;;0.13;0.13;;;;;;;7.27;70.75;101609.56;6251599;22;20037;-74
2021/12/20 06:37:59;;;;;;;0.20;0.20;;;;;;;7.19;70.53;101607.09;6246129;22;20011;-74
2021/12/20 06:40:26;;;;;;;0.22;0.22;;;;;;;7.29;70.75;101618.34;6243746;22;20024;-75
2021/12/20 06:42:52;;;;;;;0.50;0.45;;;;;;;7.23;70.65;101611.03;6275428;22;20030;-74
2021/12/20 06:45:20;;;;;;;0.40;0.40;;;;;;;7.27;70.87;101623.16;6244407;22;20315;-73
2021/12/20 06:47:46;;;;;;;0.40;0.40;;;;;;;7.21;70.60;101607.69;6274671;22;20060;-73
2021/12/20 06:50:14;;;;;;;0.32;0.28;;;;;;;7.25;70.96;101620.66;6227981;22;20019;-73
2021/12/20 06:52:44;;;;;;;0.40;0.40;;;;;;;7.23;70.87;101616.47;6251504;22;20311;-75
2021/12/20 06:55:10;;;;;;;0.38;0.20;;;;;;;7.19;70.59;101632.41;6251892;22;20000;-74
2021/12/20 06:57:43;;;;;;;0.20;0.20;;;;;;;7.11;70.37;101619.03;6228067;22;20086;-75
2021/12/20 07:00:11;;;;;;;0.40;0.30;;;;;;;7.18;70.89;101614.41;6250670;22;20007;-75
2021/12/20 07:02:44;;;;;;;0.40;0.40;;;;;;;7.15;71.42;101609.38;6254695;22;20000;-75
2021/12/20 07:05:10;;;;;;;0.32;0.30;;;;;;;7.32;70.37;101626.09;6250507;22;20423;-74
2021/12/20 07:07:36;;;;;;;0.30;0.30;;;;;;;7.34;70.86;101629.41;6280889;22;20041;-74
2021/12/20 07:10:05;;;;;;;0.30;0.30;;;;;;;7.30;69.99;101622.72;6278845;22;20039;-75
2021/12/20 07:12:35;;;;;;;0.40;0.40;;;;;;;7.21;70.81;101607.69;6281513;22;20004;-75
2021/12/20 07:15:01;;;;;;;0.22;0.22;;;;;;;7.25;70.98;101619.81;6255827;22;20091;-75
2021/12/20 07:17:27;;;;;;;0.82;0.30;;;;;;;7.28;70.74;101625.66;6279870;22;20050;-75
2021/12/20 07:19:59;;;;;;;0.45;0.40;;;;;;;7.22;70.77;101621.09;6252944;22;20019;-75
2021/12/20 07:22:25;;;;;;;0.35;0.30;;;;;;;7.24;70.87;101624.44;6229698;22;20003;-78
2021/12/20 07:25:08;;;;;;;;;;;;;;;;;;;;;
2021/12/20 07:27:36;;;;;;;0.20;0.20;;;;;;;7.10;70.61;101612.75;6258458;22;20032;-76
2021/12/20 07:30:08;;;;;;;0.10;0.10;;;;;;;7.11;70.78;101613.56;6249933;22;20011;-73
2021/12/20 07:32:41;;;;;;;0.10;0.10;;;;;;;7.12;70.08;101613.38;6251419;22;19999;-74
2021/12/20 07:35:08;;;;;;;0.32;0.10;;;;;;;7.07;70.26;101613.19;6280380;22;20418;-75
2021/12/20 07:37:34;;;;;;;0.30;0.30;;;;;;;7.15;70.28;101629.28;6252822;22;20015;-75
2021/12/20 07:40:00;;;;;;;0.22;0.20;;;;;;;7.07;70.22;101621.34;6226010;22;20008;-73
2021/12/20 07:42:25;;;;;;;0.32;0.20;;;;;;;7.14;70.22;101629.47;6252994;22;20031;-73
2021/12/20 07:44:51;;;;;;;0.60;0.10;;;;;;;7.07;70.69;101625.97;6228087;22;20414;-74
2021/12/20 07:47:22;;;;;;;1.23;0.10;;;;;;;7.03;70.60;101617.38;6254305;22;20004;-75
2021/12/20 07:49:49;;;;;;;2.28;0.20;;;;;;;6.97;70.41;101618.22;6252004;22;20030;-75
2021/12/20 07:52:15;;;;;;;0.20;0.20;;;;;;;6.93;70.65;101616.97;6255639;22;20011;-75
2021/12/20 07:54:41;;;;;;;0.45;0.20;;;;;;;6.98;70.45;101625.34;6249789;22;20410;-73
2021/12/20 07:57:06;;;;;;;0.10;0.10;;;;;;;7.01;70.73;101624.91;6276232;22;20004;-74
2021/12/20 07:59:32;;;;;;;0.22;0.15;;;;;;;7.02;70.48;101626.56;6248970;22;20063;-73
2021/12/20 08:01:57;;;;;;;0.15;0.10;;;;;;;7.04;70.43;101629.94;6251330;22;20004;-73
2021/12/20 08:04:23;;;;;;;0.00;0.00;;;;;;;7.05;70.93;101626.16;6225778;22;20471;-72
2021/12/20 08:06:49;;;;;;;0.10;0.10;;;;;;;7.07;70.80;101623.25;6246961;22;20014;-73
2021/12/20 08:09:15;;;;;;;0.20;0.20;;;;;;;7.08;70.78;101631.19;6250778;22;20004;-73
2021/12/20 08:11:41;;;;;;;0.15;0.10;;;;;;;7.07;70.41;101617.81;6241248;23;20047;-73
2021/12/20 08:14:07;;;;;;;0.40;0.32;;;;;;;7.03;70.79;101611.09;6245186;23;20066;-75
2021/12/20 08:17:04;;;;;;;1.02;0.30;;;;;;;7.05;71.05;101622.59;6217180;23;20787;-74
2021/12/20 08:19:40;;;;;;;0.20;0.20;;;;;;;6.94;71.17;101607.78;6243704;23;20031;-74
2021/12/20 08:22:08;;;;;;;0.10;0.10;;;;;;;7.03;71.52;101633.69;6244967;22;20011;-74
2021/12/20 08:24:40;;;;;;;0.10;0.10;;;;;;;6.96;71.03;101613.84;6250452;23;20008;-75
2021/12/20 08:27:06;;;;;;;0.28;0.20;;;;;;;6.98;70.84;101614.47;6223542;23;20008;-74
2021/12/20 08:29:34;;;;;;;0.38;0.30;;;;;;;7.00;71.19;101609.66;6245523;23;20016;-73
2021/12/20 08:32:01;;;;;;;0.22;0.22;;;;;;;7.02;71.38;101623.84;6244060;22;20000;-74
2021/12/20 08:34:28;;;;;;;3.70;0.50;;;;;;;7.04;71.04;101629.94;6249323;22;20075;-73
2021/12/20 08:36:55;;;;;;;0.47;0.40;;;;;;;7.03;71.39;101628.25;6250276;22;20008;-72
2021/12/20 08:39:27;;;;;;;2.92;0.55;;;;;;;7.03;72.41;101636.41;6240837;23;20011;-72
2021/12/20 08:41:52;;;;;;;0.35;0.35;;;;;;;6.95;71.45;101614.88;6244884;23;20643;-72
2021/12/20 08:44:26;;;;;;;0.30;0.30;;;;;;;7.02;72.12;101626.56;6220422;23;20008;-72
2021/12/20 08:46:53;;;;;;;0.32;0.32;;;;;;;7.05;71.74;101636.19;6226846;23;20016;-72
2021/12/20 08:49:24;;;;;;;0.82;0.30;;;;;;;6.95;71.98;101621.16;6221447;23;20032;-71
2021/12/20 08:51:54;;;;;;;0.35;0.35;;;;;;;6.97;72.08;101620.94;6241324;22;20046;-71
2021/12/20 08:54:20;;;;;;;0.45;0.30;;;;;;;7.05;71.75;101622.59;6245472;22;20418;-72
2021/12/20 08:56:46;;;;;;;2.33;0.50;;;;;;;7.06;72.05;101621.56;6247729;22;20004;-72
2021/12/20 08:59:12;;;;;;;0.47;0.47;;;;;;;7.07;72.01;101624.06;6248850;23;20089;-72
2021/12/20 09:01:40;;;;;;;1.48;0.65;;;;;;;7.18;72.20;101624.44;6251151;22;20004;-73
2021/12/20 09:04:16;;;;;;;0.30;0.30;;;;;;;7.15;71.61;101621.13;6245940;23;20007;-72
2021/12/20 09:06:45;;;;;;;0.50;0.50;;;;;;;7.12;72.17;101616.09;6240210;22;20090;-72
2021/12/20 09:09:14;;;;;;;0.20;0.20;;;;;;;7.09;71.95;101616.50;6245928;22;20054;-72
2021/12/20 09:11:54;;;;;;;0.17;0.17;;;;;;;7.14;71.58;101629.47;6277955;22;20016;-73
2021/12/20 09:14:20;;;;;;;0.30;0.30;;;;;;;7.10;71.87;101623.63;6254450;22;20046;-72
2021/12/20 09:16:54;;;;;;;0.20;0.20;;;;;;;7.21;72.01;101640.34;6251211;22;20425;-72
2021/12/20 09:19:19;;;;;;;0.22;0.20;;;;;;;7.12;71.20;101632.41;6252859;22;20059;-72
2021/12/20 09:21:49;;;;;;;0.10;0.10;;;;;;;7.15;71.22;101621.13;6253425;22;20016;-72
2021/12/20 09:24:14;;;;;;;0.43;0.30;;;;;;;7.16;71.42;101625.50;6279062;22;20057;-72
2021/12/20 09:26:40;;;;;;;0.28;0.28;;;;;;;7.19;71.63;101618.78;6252558;22;20004;-73
2021/12/20 09:29:05;;;;;;;0.20;0.20;;;;;;;7.16;71.24;101621.94;6279666;22;20099;-73
2021/12/20 09:31:31;;;;;;;0.40;0.40;;;;;;;7.14;71.04;101624.03;6230863;22;20031;-75
2021/12/20 09:33:58;;;;;;;0.80;0.20;;;;;;;7.15;70.95;101615.69;6283842;22;20055;-72
2021/12/20 09:36:29;;;;;;;0.35;0.35;;;;;;;7.21;71.31;101619.41;6254642;22;20003;-73
2021/12/20 09:38:59;;;;;;;0.30;0.30;;;;;;;7.23;71.34;101611.03;6255808;22;20068;-73
2021/12/20 09:44:02;;;;;;;0.50;0.50;;;;;;;7.36;71.34;101627.31;6290356;22;20095;-73
2021/12/20 09:46:32;;;;;;;0.43;0.43;;;;;;;7.24;71.00;101613.56;6279264;22;20015;-75
2021/12/20 09:49:04;;;;;;;0.70;0.70;;;;;;;7.38;70.57;101630.66;6227115;22;20085;-74
2021/12/20 09:51:32;;;;;;;0.38;0.38;;;;;;;7.31;71.45;101618.97;6249916;22;20055;-73
2021/12/20 09:54:05;;;;;;;0.45;0.45;;;;;;;7.33;70.82;101628.59;6251072;22;19999;-72
2021/12/20 09:56:31;;;;;;;0.93;0.57;;;;;;;7.37;70.83;101631.69;6281580;22;19999;-75
2021/12/20 09:58:59;;;;;;;0.80;0.70;;;;;;;7.32;70.90;101618.75;6255088;22;20427;-75
2021/12/20 10:01:33;;;;;;;0.50;0.50;;;;;;;7.50;70.96;101642.56;6283825;22;20003;-75
2021/12/20 10:03:59;;;;;;;0.50;0.50;;;;;;;7.49;71.00;101635.44;6255289;22;20011;-71
2021/12/20 10:06:29;;;;;;;2.58;0.52;;;;;;;7.45;71.36;101630.66;6284256;22;20055;-77
2021/12/20 10:09:09;;;;;;;0.40;0.40;;;;;;;7.50;71.05;101631.69;6283501;22;20011;-75
2021/12/20 10:11:38;;;;;;;1.00;0.47;;;;;;;7.57;70.84;101638.97;6260699;22;20020;-78
2021/12/20 10:14:19;;;;;;;0.32;0.30;;;;;;;7.62;70.57;101647.31;6255068;22;20007;-74
2021/12/20 10:16:47;;;;;;;1.20;0.60;;;;;;;7.62;70.80;101647.31;6257926;22;20363;-75
2021/12/20 10:19:47;;;;;;;0.22;0.22;;;;;;;7.59;70.77;101639.56;6257807;22;20004;-73
2021/12/20 10:22:32;;;;;;;0.30;0.30;;;;;;;7.54;70.44;101637.50;6280173;22;20046;-74
2021/12/20 10:25:02;;;;;;;1.25;0.40;;;;;;;7.58;70.45;101640.63;6253614;22;20011;-74
2021/12/20 10:27:30;;;;;;;0.22;0.22;;;;;;;7.58;70.76;101640.63;6254682;22;20014;-72
2021/12/20 10:30:00;;;;;;;0.40;0.40;;;;;;;7.64;70.83;101650.66;6253384;22;20022;-74
2021/12/20 10:32:40;;;;;;;0.30;0.30;;;;;;;7.63;70.68;101643.53;6279516;22;20430;-73
2021/12/20 10:35:33;;;;;;;0.30;0.20;;;;;;;7.64;70.50;101645.22;6284327;22;20069;-77
2021/12/20 10:38:04;;;;;;;0.68;0.30;;;;;;;7.53;70.31;101626.84;6262642;22;20011;-77
2021/12/20 10:40:39;;;;;;;0.70;0.60;;;;;;;7.64;71.15;101645.22;6256669;22;20122;-75
2021/12/20 10:43:12;;;;;;;1.13;0.30;;;;;;;7.58;70.62;101624.28;6259592;22;20517;-74
2021/12/20 10:45:37;;;;;;;0.30;0.30;;;;;;;7.71;70.98;101640.59;6282945;22;20503;-76
2021/12/20 10:48:13;;;;;;;0.63;0.40;;;;;;;7.71;71.16;101635.13;6231342;22;20016;-73
2021/12/20 10:50:44;;;;;;;0.30;0.20;;;;;;;7.72;70.74;101634.06;6253154;22;20011;-74
2021/12/20 10:53:14;;;;;;;0.45;0.43;;;;;;;7.80;70.55;101644.72;6284360;22;20038;-75
2021/12/20 10:56:02;;;;;;;0.40;0.35;;;;;;;7.76;70.78;101635.31;6282715;22;20000;-74
2021/12/20 10:58:43;;;;;;;0.73;0.38;;;;;;;7.79;70.73;101631.31;6257972;22;20034;-73
2021/12/20 11:01:22;;;;;;;1.38;0.50;;;;;;;7.86;71.40;101637.56;6259290;22;20035;-77
2021/12/20 11:04:11;;;;;;;0.35;0.35;;;;;;;7.81;71.34;101627.31;6259299;22;20008;-76
2021/12/20 11:09:31;;;;;;;;;;;;;;;;;;;;;
2021/12/20 11:12:04;;;;;;;0.50;0.50;;;;;;;7.76;70.69;101602.63;6287369;22;20050;-73
2021/12/20 11:14:52;;;;;;;;;;;;;;;;;;;;;
2021/12/20 11:17:23;;;;;;;0.60;0.60;;;;;;;7.96;70.28;101618.03;6287194;22;20340;-75
2021/12/20 11:19:54;;;;;;;0.65;0.43;;;;;;;8.13;69.93;101630.06;6259116;22;20003;-76
2021/12/20 11:22:44;;;;;;;1.10;1.00;;;;;;;8.23;70.32;101626.00;6258480;22;20062;-75
2021/12/20 11:25:45;;;;;;;;;;;;;;;;;;;;;
2021/12/20 11:28:27;;;;;;;0.28;0.20;;;;;;;8.32;69.84;101598.28;6283951;22;20019;-74
2021/12/20 11:30:53;;;;;;;0.73;0.50;;;;;;;8.44;69.59;101605.69;6280225;22;20012;-74
2021/12/20 11:33:19;;;;;;;0.30;0.30;;;;;;;8.44;69.68;101598.41;6254278;22;20042;-76
2021/12/20 11:35:45;;;;;;;0.45;0.40;;;;;;;8.54;68.83;101617.81;6252284;22;20003;-74
2021/12/20 11:38:11;;;;;;;0.60;0.60;;;;;;;8.48;69.00;101602.34;6282062;22;20006;-77
2021/12/20 11:40:43;;;;;;;0.80;0.80;;;;;;;8.58;68.79;101606.47;6274528;22;20007;-75
2021/12/20 11:50:17;;;;;;;0.25;0.20;;;;;;;8.43;68.13;101604.06;6279181;22;20914;-77
2021/12/20 11:53:02;;;;;;;;;;;;;;;;;;;;;
2021/12/20 11:55:43;;;;;;;;;;;;;;;;;;;;;
2021/12/20 11:58:41;;;;;;;;;;;;;;;;;;;;;
2021/12/20 12:01:19;;;;;;;0.30;0.30;;;;;;;8.57;68.69;101570.16;6278239;22;20031;-77
2021/12/20 12:04:18;;;;;;;0.38;0.38;;;;;;;8.70;68.24;101571.94;6255024;22;20014;-75
2021/12/20 12:06:45;;;;;;;3.78;0.30;;;;;;;8.85;67.67;101577.88;6249243;22;20032;-74
2021/12/20 12:09:28;;;;;;;0.40;0.40;;;;;;;8.80;67.93;101557.78;6282913;22;20011;-76
2021/12/20 12:12:21;;;;;;;;;;;;;;;;;;;;;
2021/12/20 12:15:08;;;;;;;0.60;0.60;;;;;;;8.82;67.60;101531.97;6286242;22;20004;-76
2021/12/20 12:18:46;;;;;;;;;;;;;;;;;;;;;
2021/12/20 12:27:54;;;;;;;;;;;;;;;;;;;;;
2021/12/20 12:30:40;;;;;;;0.50;0.50;;;;;;;9.36;67.48;101553.13;6282950;22;20062;-75
2021/12/20 12:33:21;;;;;;;0.40;0.40;;;;;;;9.46;67.23;101553.41;6252436;22;20000;-76
2021/12/20 12:35:50;;;;;;;0.38;0.38;;;;;;;9.40;66.74;101532.50;6249727;22;19996;-75
2021/12/20 12:38:16;;;;;;;0.30;0.30;;;;;;;9.60;67.06;101552.16;6255039;22;20010;-76